createdAt,value
2023-03-25T00:04:45.685Z,63.20
2023-03-25T00:09:50.616Z,64.31
2023-03-25T00:14:55.580Z,63.86
2023-03-25T00:20:00.555Z,63.66
2023-03-25T00:25:06.292Z,63.02
2023-03-25T00:30:11.260Z,63.16
2023-03-25T00:35:19.984Z,64.40
2023-03-25T00:40:25.457Z,61.76
2023-03-25T00:45:29.328Z,62.86
2023-03-25T00:50:32.824Z,61.79
2023-03-25T00:55:37.644Z,62.94
2023-03-25T01:00:41.582Z,63.62
2023-03-25T01:05:45.714Z,62.62
2023-03-25T01:10:50.569Z,61.77
2023-03-25T01:15:54.259Z,62.15
2023-03-25T01:20:57.893Z,63.44
2023-03-25T01:26:02.859Z,63.67
2023-03-25T01:31:08.738Z,62.07
2023-03-25T01:36:13.214Z,63.47
2023-03-25T01:41:18.297Z,62.66
2023-03-25T01:46:21.762Z,61.48
2023-03-25T01:51:28.319Z,62.79
2023-03-25T01:56:36.903Z,63.04
2023-03-25T02:01:40.333Z,63.34
2023-03-25T02:06:45.696Z,63.69
2023-03-25T02:11:50.697Z,62.02
2023-03-25T02:17:01.281Z,63.35
2023-03-25T02:22:37.792Z,63.51
2023-03-25T02:27:59.118Z,61.74
2023-03-25T02:33:32.928Z,63.36
2023-03-25T02:38:42.035Z,61.54
2023-03-25T02:43:47.770Z,62.52
2023-03-25T02:48:56.555Z,63.03
2023-03-25T02:54:05.218Z,61.91
2023-03-25T02:59:09.959Z,62.79
2023-03-25T03:04:13.464Z,61.12
2023-03-25T03:09:27.430Z,62.95
2023-03-25T03:14:43.384Z,62.70
2023-03-25T03:19:50.052Z,62.60
2023-03-25T03:25:01.925Z,62.63
2023-03-25T03:30:09.206Z,62.02
2023-03-25T03:35:16.974Z,63.44
2023-03-25T03:40:24.195Z,62.00
2023-03-25T03:45:31.297Z,60.92
2023-03-25T03:50:39.647Z,62.16
2023-03-25T03:55:47.276Z,61.77
2023-03-25T04:00:54.565Z,62.61
2023-03-25T04:06:06.731Z,61.85
2023-03-25T04:11:13.780Z,61.55
2023-03-25T04:16:17.847Z,60.64
2023-03-25T04:21:21.722Z,61.21
2023-03-25T04:26:26.696Z,62.31
2023-03-25T04:31:31.595Z,62.01
2023-03-25T04:36:38.124Z,60.74
2023-03-25T04:41:44.231Z,60.92
2023-03-25T04:46:47.799Z,61.63
2023-03-25T04:51:52.104Z,60.82
2023-03-25T04:56:57.327Z,62.16
2023-03-25T05:02:02.743Z,59.95
2023-03-25T05:07:06.627Z,61.09
2023-03-25T05:12:11.792Z,60.83
2023-03-25T05:17:15.599Z,61.33
2023-03-25T05:22:19.109Z,61.81
2023-03-25T05:27:23.958Z,61.88
2023-03-25T05:32:30.221Z,59.98
2023-03-25T05:37:34.094Z,60.50
2023-03-25T05:42:39.000Z,60.07
2023-03-25T05:47:42.558Z,59.33
2023-03-25T05:52:49.827Z,60.81
2023-03-25T05:57:54.764Z,61.62
2023-03-25T06:02:59.135Z,59.41
2023-03-25T06:08:02.693Z,61.52
2023-03-25T06:13:07.603Z,61.01
2023-03-25T06:18:11.109Z,59.37
2023-03-25T06:23:14.598Z,61.09
2023-03-25T06:28:19.726Z,59.81
2023-03-25T06:33:42.852Z,59.99
2023-03-25T06:38:46.826Z,59.14
2023-03-25T06:43:51.627Z,59.53
2023-03-25T06:48:55.130Z,61.06
2023-03-25T06:53:58.665Z,60.93
2023-03-25T06:59:03.695Z,59.75
2023-03-25T07:04:07.173Z,60.16
2023-03-25T07:09:10.699Z,60.02
2023-03-25T07:14:15.648Z,59.22
2023-03-25T07:19:19.155Z,59.41
2023-03-25T07:24:22.810Z,60.67
2023-03-25T07:29:27.641Z,59.47
2023-03-25T07:34:31.136Z,59.55
2023-03-25T07:39:34.622Z,59.39
2023-03-25T07:44:39.484Z,59.21
2023-03-25T07:49:42.998Z,60.39
2023-03-25T07:54:46.461Z,59.64
2023-03-25T07:59:51.385Z,59.83
2023-03-25T08:04:56.124Z,59.53
2023-03-25T08:09:59.633Z,60.42
2023-03-25T08:15:05.117Z,61.55
2023-03-25T08:20:11.636Z,60.12
2023-03-25T08:25:15.995Z,59.60
2023-03-25T08:30:20.989Z,59.53
2023-03-25T08:35:25.344Z,59.70
2023-03-25T08:40:29.236Z,61.96
2023-03-25T08:45:35.039Z,60.47
2023-03-25T08:50:38.579Z,61.84
2023-03-25T08:55:42.076Z,59.66
2023-03-25T09:00:47.393Z,61.30
2023-03-25T09:05:51.387Z,60.94
2023-03-25T09:10:56.604Z,61.43
2023-03-25T09:16:01.595Z,60.84
2023-03-25T09:21:05.367Z,62.41
2023-03-25T09:26:08.859Z,61.75
2023-03-25T09:31:13.795Z,61.18
2023-03-25T09:36:17.205Z,61.04
2023-03-25T09:41:31.074Z,61.74
2023-03-25T09:46:38.550Z,61.96
2023-03-25T09:51:42.498Z,60.74
2023-03-25T09:56:46.235Z,61.58
2023-03-25T10:01:56.974Z,61.28
2023-03-25T10:07:07.666Z,61.57
2023-03-25T10:12:24.122Z,61.95
2023-03-25T10:17:35.606Z,62.13
2023-03-25T10:22:44.966Z,61.75
2023-03-25T10:27:50.819Z,60.82
2023-03-25T10:32:58.270Z,62.71
2023-03-25T10:38:13.801Z,61.79
2023-03-25T10:43:23.337Z,62.61
2023-03-25T10:48:29.959Z,61.43
2023-03-25T10:53:33.805Z,61.90
2023-03-25T10:58:38.869Z,62.11
2023-03-25T11:03:44.947Z,63.26
2023-03-25T11:09:13.775Z,62.26
2023-03-25T11:14:17.959Z,61.15
2023-03-25T11:19:26.955Z,61.47
2023-03-25T11:24:34.116Z,61.53
2023-03-25T11:29:38.187Z,62.30
2023-03-25T11:34:43.112Z,62.95
2023-03-25T11:39:52.275Z,61.72
2023-03-25T11:44:59.528Z,63.50
2023-03-25T11:50:05.729Z,62.67
2023-03-25T11:55:18.368Z,62.61
2023-03-25T12:00:32.832Z,62.86
2023-03-25T12:05:38.858Z,62.39
2023-03-25T12:10:54.000Z,62.60
2023-03-25T12:16:04.214Z,63.70
2023-03-25T12:21:15.232Z,63.74
2023-03-25T12:26:19.810Z,62.45
2023-03-25T12:31:31.849Z,62.79
2023-03-25T12:36:44.456Z,63.22
2023-03-25T12:41:51.078Z,62.75
2023-03-25T12:47:08.198Z,62.82
2023-03-25T12:52:18.107Z,62.13
2023-03-25T12:57:32.658Z,63.76
2023-03-25T13:02:55.115Z,57.83
2023-03-25T13:08:03.607Z,61.27
2023-03-25T13:13:12.221Z,63.74
2023-03-25T13:18:20.271Z,64.69
2023-03-25T13:23:26.003Z,63.03
2023-03-25T13:28:38.488Z,62.49
2023-03-25T13:33:45.702Z,64.14
2023-03-25T13:38:52.884Z,63.89
2023-03-25T13:44:02.907Z,62.80
2023-03-25T13:49:09.049Z,63.14
2023-03-25T13:54:18.040Z,64.17
2023-03-25T13:59:40.375Z,62.72
2023-03-25T14:05:10.982Z,62.45
2023-03-25T14:10:30.984Z,63.46
2023-03-25T14:15:36.338Z,62.29
2023-03-25T14:20:41.697Z,62.57
2023-03-25T14:25:48.814Z,64.16
2023-03-25T14:31:09.426Z,62.46
2023-03-25T14:36:12.827Z,63.15
2023-03-25T14:41:18.328Z,63.59
2023-03-25T14:46:23.910Z,64.31
2023-03-25T14:51:45.190Z,63.30
2023-03-25T14:56:54.831Z,63.70
2023-03-25T15:02:04.219Z,63.68
2023-03-25T15:07:12.933Z,63.89
2023-03-25T15:12:19.683Z,62.91
2023-03-25T15:17:45.759Z,62.15
2023-03-25T15:23:23.201Z,63.52
2023-03-25T15:28:50.243Z,62.52
2023-03-25T15:34:03.744Z,64.27
2023-03-25T15:39:20.809Z,62.80
2023-03-25T15:44:43.906Z,63.43
2023-03-25T15:50:16.931Z,63.22
2023-03-25T15:55:22.812Z,62.09
2023-03-25T16:00:29.894Z,62.93
2023-03-25T16:05:34.918Z,61.80
2023-03-25T16:10:41.659Z,62.42
2023-03-25T16:15:46.975Z,62.57
2023-03-25T16:20:55.729Z,63.86
2023-03-25T16:25:59.097Z,62.20
2023-03-25T16:31:04.632Z,63.20
2023-03-25T16:36:16.867Z,63.51
2023-03-25T16:41:20.758Z,62.12
2023-03-25T16:46:25.816Z,61.44
2023-03-25T16:51:32.314Z,61.31
2023-03-25T16:56:39.186Z,61.27
2023-03-25T17:01:48.350Z,61.57
2023-03-25T17:06:54.809Z,62.83
2023-03-25T17:11:59.287Z,62.60
2023-03-25T17:17:09.686Z,61.79
2023-03-25T17:22:17.819Z,62.58
2023-03-25T17:27:34.578Z,63.46
2023-03-25T17:32:45.071Z,61.73
2023-03-25T17:37:50.387Z,61.61
2023-03-25T17:42:54.497Z,62.12
2023-03-25T17:47:59.345Z,61.79
2023-03-25T17:53:02.803Z,62.46
2023-03-25T17:58:06.989Z,63.57
2023-03-25T18:03:13.823Z,61.79
2023-03-25T18:08:17.696Z,62.26
2023-03-25T18:13:22.750Z,63.72
2023-03-25T18:18:27.928Z,62.11
2023-03-25T18:23:31.478Z,63.14
2023-03-25T18:28:36.117Z,62.64
2023-03-25T18:33:41.584Z,62.76
2023-03-25T18:38:45.274Z,62.39
2023-03-25T18:43:48.723Z,62.66
2023-03-25T18:48:53.612Z,64.18
2023-03-25T18:53:57.122Z,64.21
2023-03-25T18:59:00.538Z,63.88
2023-03-25T19:04:05.498Z,63.60
2023-03-25T19:09:10.353Z,64.82
2023-03-25T19:14:13.896Z,64.21
2023-03-25T19:19:18.813Z,63.07
2023-03-25T19:24:22.253Z,62.87
2023-03-25T19:29:25.793Z,64.21
2023-03-25T19:34:31.590Z,63.23
2023-03-25T19:39:35.493Z,63.30
2023-03-25T19:44:38.988Z,64.30
2023-03-25T19:49:43.830Z,63.83
2023-03-25T19:54:47.377Z,63.40
2023-03-25T19:59:51.287Z,65.04
2023-03-25T20:04:56.356Z,64.69
2023-03-25T20:10:09.723Z,64.63
2023-03-25T20:15:23.210Z,65.25
2023-03-25T20:20:28.115Z,64.51
2023-03-25T20:25:31.600Z,64.89
2023-03-25T20:30:35.814Z,64.19
2023-03-25T20:35:40.726Z,65.46
2023-03-25T20:40:45.350Z,65.59
2023-03-25T20:45:48.895Z,63.96
2023-03-25T20:50:59.734Z,63.94
2023-03-25T20:56:03.663Z,65.08
2023-03-25T21:01:08.142Z,63.68
2023-03-25T21:11:24.662Z,63.80
2023-03-25T21:16:28.714Z,64.31
2023-03-25T21:21:33.934Z,63.80
2023-03-25T21:26:37.759Z,64.42
2023-03-25T21:31:41.780Z,64.30
2023-03-25T21:36:46.746Z,64.49
2023-03-25T21:41:50.279Z,65.17
2023-03-25T21:46:53.893Z,66.11
2023-03-25T21:51:58.782Z,65.59
2023-03-25T21:57:04.798Z,65.20
2023-03-25T22:02:08.769Z,65.13
2023-03-25T22:07:13.709Z,65.69
2023-03-25T22:12:17.147Z,64.51
2023-03-25T22:17:20.576Z,65.48
2023-03-25T22:22:25.440Z,65.63
2023-03-25T22:27:28.897Z,64.72
2023-03-25T22:32:35.206Z,65.11
2023-03-25T22:37:40.111Z,66.23
2023-03-25T22:42:43.646Z,65.61
2023-03-25T22:47:47.213Z,65.13
2023-03-25T22:52:52.100Z,65.82
2023-03-25T22:57:55.606Z,64.92
2023-03-25T23:02:59.150Z,65.53
2023-03-25T23:08:04.110Z,65.96
2023-03-25T23:13:08.048Z,65.09
2023-03-25T23:18:11.641Z,65.19
2023-03-25T23:23:17.763Z,66.56
2023-03-25T23:28:21.241Z,66.57
2023-03-25T23:33:24.683Z,65.87
2023-03-25T23:38:29.983Z,67.00
2023-03-25T23:43:33.879Z,67.27
2023-03-25T23:48:41.019Z,66.32
2023-03-25T23:53:47.043Z,66.57
2023-03-25T23:58:50.632Z,67.13
